Time;durP1;ratioP1;P1;durP2;ratioP2;P2;SDS_P1;SDS_P2;PMS_P1;PMS_P2;Temp;Humidity;BMP_temperature;BMP_pressure;BME280_temperature;BME280_humidity;BME280_pressure;Samples;Min_cycle;Max_cycle;Signal;HPM_P1;HPM_P2
2022/08/18 00:01:32;;;;;;;7.25;1.95;;;;;;;;;;10481467;28;20044;-47
2022/08/18 00:06:33;;;;;;;10.60;2.00;;;;;;;;;;10476902;28;20071;-48
2022/08/18 00:11:41;;;;;;;3.90;2.00;;;;;;;;;;10473942;28;20116;-48
2022/08/18 00:16:42;;;;;;;;;;;;;;;;;;10471818;28;20144;-47
2022/08/18 00:21:43;;;;;;;3.05;2.42;;;;;;;;;;10489372;28;20069;-49
2022/08/18 00:26:43;;;;;;;5.90;1.75;;;;;;;;;;10474408;28;20119;-48
2022/08/18 00:31:44;;;;;;;6.82;1.73;;;;;;;;;;10486738;28;20029;-47
2022/08/18 00:36:45;;;;;;;12.23;2.20;;;;;;;;;;10472547;28;20048;-48
2022/08/18 00:41:45;;;;;;;6.63;1.90;;;;;;;;;;10488305;28;20039;-47
2022/08/18 00:46:46;;;;;;;11.52;2.20;;;;;;;;;;10480594;28;20037;-47
2022/08/18 00:51:50;;;;;;;15.85;2.20;;;;;;;;;;10489080;28;20046;-49
2022/08/18 00:56:56;;;;;;;5.15;1.75;;;;;;;;;;10486820;28;20032;-47
2022/08/18 01:02:01;;;;;;;7.60;2.05;;;;;;;;;;10470845;28;20039;-48
2022/08/18 01:07:45;;;;;;;10.88;2.03;;;;;;;;;;10460242;28;20500;-47
2022/08/18 01:12:52;;;;;;;2.55;1.70;;;;;;;;;;10438926;28;20124;-47
2022/08/18 01:23:18;;;;;;;5.53;1.42;;;;;;;;;;10487738;28;20017;-48
2022/08/18 01:28:21;;;;;;;8.77;1.70;;;;;;;;;;10472990;28;20484;-48
2022/08/18 01:33:28;;;;;;;2.72;1.85;;;;;;;;;;10484259;28;20361;-47
2022/08/18 01:38:30;;;;;;;6.05;2.03;;;;;;;;;;10492334;28;20024;-47
2022/08/18 01:43:33;;;;;;;2.85;1.80;;;;;;;;;;10482706;28;20451;-47
2022/08/18 01:48:36;;;;;;;8.02;2.17;;;;;;;;;;10484340;28;20045;-48
2022/08/18 01:53:37;;;;;;;4.25;1.65;;;;;;;;;;10484849;28;20036;-48
2022/08/18 01:58:38;;;;;;;3.63;1.50;;;;;;;;;;10480239;28;20032;-47
2022/08/18 02:03:43;;;;;;;4.32;1.88;;;;;;;;;;10487419;28;20431;-47
2022/08/18 02:08:46;;;;;;;4.40;1.70;;;;;;;;;;10477174;28;20037;-49
2022/08/18 02:13:46;;;;;;;3.47;1.92;;;;;;;;;;10490056;28;20016;-47
2022/08/18 02:18:47;;;;;;;2.22;1.58;;;;;;;;;;10465117;28;20032;-47
2022/08/18 02:23:48;;;;;;;3.22;1.70;;;;;;;;;;10478116;28;20032;-48
2022/08/18 02:28:49;;;;;;;5.78;1.45;;;;;;;;;;10489131;28;20036;-49
2022/08/18 02:33:50;;;;;;;2.78;1.60;;;;;;;;;;10488362;28;20028;-49
2022/08/18 02:38:51;;;;;;;2.97;1.50;;;;;;;;;;10493730;28;20033;-49
2022/08/18 02:43:52;;;;;;;2.65;1.73;;;;;;;;;;10485910;28;20031;-48
2022/08/18 02:48:53;;;;;;;6.35;1.60;;;;;;;;;;10477995;28;20160;-48
2022/08/18 02:53:54;;;;;;;3.13;1.70;;;;;;;;;;10491334;28;20032;-48
2022/08/18 02:59:02;;;;;;;3.42;1.55;;;;;;;;;;10476033;28;20033;-48
2022/08/18 03:04:06;;;;;;;2.33;1.45;;;;;;;;;;10503285;22;20083;-64
2022/08/18 03:09:09;;;;;;;6.55;1.77;;;;;;;;;;10473642;28;20551;-54
2022/08/18 03:14:11;;;;;;;4.75;1.60;;;;;;;;;;10484865;28;20492;-52
2022/08/18 03:19:15;;;;;;;2.55;1.58;;;;;;;;;;10443839;28;20028;-49
2022/08/18 03:24:16;;;;;;;3.13;1.40;;;;;;;;;;10455662;28;20114;-61
2022/08/18 03:29:17;;;;;;;4.22;1.70;;;;;;;;;;10450490;28;20179;-55
2022/08/18 03:34:19;;;;;;;3.00;1.65;;;;;;;;;;10450142;28;20123;-52
2022/08/18 03:39:23;;;;;;;4.22;1.50;;;;;;;;;;10448904;28;20033;-50
2022/08/18 03:44:26;;;;;;;3.63;1.70;;;;;;;;;;10436193;28;20048;-51
2022/08/18 03:49:27;;;;;;;1.73;1.25;;;;;;;;;;10440980;28;20120;-51
2022/08/18 03:54:30;;;;;;;2.55;1.48;;;;;;;;;;10448852;28;20108;-53
2022/08/18 03:59:32;;;;;;;2.70;1.50;;;;;;;;;;10446904;28;20045;-51
2022/08/18 04:04:32;;;;;;;2.10;1.38;;;;;;;;;;10461795;28;20044;-55
2022/08/18 04:09:35;;;;;;;1.85;1.40;;;;;;;;;;10442770;28;20041;-54
2022/08/18 04:14:42;;;;;;;4.15;1.38;;;;;;;;;;10434058;28;20055;-62
2022/08/18 04:19:42;;;;;;;2.58;1.50;;;;;;;;;;10421224;28;20052;-60
2022/08/18 04:24:43;;;;;;;2.10;1.38;;;;;;;;;;10448252;28;20415;-57
2022/08/18 04:29:44;;;;;;;5.43;1.77;;;;;;;;;;10433180;28;20369;-55
2022/08/18 04:34:45;;;;;;;4.65;1.98;;;;;;;;;;10446716;28;20025;-54
2022/08/18 04:39:46;;;;;;;4.63;1.60;;;;;;;;;;10446565;28;20032;-52
2022/08/18 04:44:46;;;;;;;5.45;1.40;;;;;;;;;;10429518;28;20064;-48
2022/08/18 04:49:47;;;;;;;7.57;1.80;;;;;;;;;;10448189;28;20044;-51
2022/08/18 04:54:47;;;;;;;9.30;1.55;;;;;;;;;;10455062;28;20021;-53
2022/08/18 04:59:51;;;;;;;11.23;2.17;;;;;;;;;;10452715;28;20033;-57
2022/08/18 05:04:51;;;;;;;4.72;1.70;;;;;;;;;;10454352;28;20079;-50
2022/08/18 05:09:53;;;;;;;4.28;1.52;;;;;;;;;;10448860;28;20033;-53
2022/08/18 05:14:55;;;;;;;3.33;1.50;;;;;;;;;;10471292;28;20560;-51
2022/08/18 05:19:58;;;;;;;5.50;1.48;;;;;;;;;;10452802;28;20033;-53
2022/08/18 05:24:59;;;;;;;7.70;1.50;;;;;;;;;;10454079;28;20075;-54
2022/08/18 05:30:01;;;;;;;5.40;1.50;;;;;;;;;;10451465;28;20538;-49
2022/08/18 05:35:27;;;;;;;8.68;1.98;;;;;;;;;;10431430;28;20039;-51
2022/08/18 05:40:30;;;;;;;3.13;1.20;;;;;;;;;;10438836;28;20025;-52
2022/08/18 05:45:33;;;;;;;4.80;1.15;;;;;;;;;;10433050;28;20054;-51
2022/08/18 05:50:36;;;;;;;3.53;1.20;;;;;;;;;;10434587;28;20043;-49
2022/08/18 06:01:20;;;;;;;3.60;1.45;;;;;;;;;;10430366;28;20099;-52
2022/08/18 06:06:29;;;;;;;9.60;1.58;;;;;;;;;;10443808;28;20435;-53
2022/08/18 06:11:29;;;;;;;1.58;1.17;;;;;;;;;;10452176;28;20086;-49
2022/08/18 06:16:36;;;;;;;3.40;1.40;;;;;;;;;;10454689;28;20095;-50
2022/08/18 06:21:49;;;;;;;2.95;1.30;;;;;;;;;;10470558;28;20099;-49
2022/08/18 06:27:04;;;;;;;3.90;1.45;;;;;;;;;;10471387;28;20060;-54
2022/08/18 06:32:27;;;;;;;3.63;1.52;;;;;;;;;;10454481;28;20031;-54
2022/08/18 06:38:37;;;;;;;1.10;1.00;;;;;;;;;;10455239;28;20362;-54
2022/08/18 06:42:55;;;;;;;4.22;1.35;;;;;;;;;;10446608;28;20043;-59
2022/08/18 06:48:13;;;;;;;2.33;1.40;;;;;;;;;;10455451;28;20400;-53
2022/08/18 06:53:14;;;;;;;7.55;1.40;;;;;;;;;;10423048;28;20036;-54
2022/08/18 06:58:14;;;;;;;3.83;1.40;;;;;;;;;;10447847;28;20037;-56
2022/08/18 07:03:20;;;;;;;11.83;1.60;;;;;;;;;;10441443;28;20033;-55
2022/08/18 07:08:29;;;;;;;4.70;1.95;;;;;;;;;;10436663;28;20476;-55
2022/08/18 07:13:39;;;;;;;8.15;1.83;;;;;;;;;;10444168;28;20028;-54
2022/08/18 07:18:39;;;;;;;9.18;2.00;;;;;;;;;;10434332;28;20025;-53
2022/08/18 07:23:40;;;;;;;9.23;2.15;;;;;;;;;;10459287;28;20028;-51
2022/08/18 07:28:50;;;;;;;7.35;1.98;;;;;;;;;;10461843;28;20481;-52
2022/08/18 07:34:00;;;;;;;8.25;1.90;;;;;;;;;;10440645;28;20040;-55
2022/08/18 07:39:22;;;;;;;8.68;2.10;;;;;;;;;;10446505;28;20033;-52
2022/08/18 07:44:50;;;;;;;4.07;1.65;;;;;;;;;;10420916;28;20048;-52
2022/08/18 07:49:57;;;;;;;5.28;1.98;;;;;;;;;;10421470;28;20029;-63
2022/08/18 07:55:25;;;;;;;6.78;1.58;;;;;;;;;;10442321;28;20120;-52
2022/08/18 08:00:53;;;;;;;7.57;2.00;;;;;;;;;;10434683;28;20167;-49
2022/08/18 08:06:07;;;;;;;6.15;1.85;;;;;;;;;;10430009;28;20181;-51
2022/08/18 08:11:38;;;;;;;3.13;1.38;;;;;;;;;;10433259;28;20039;-53
2022/08/18 08:16:55;;;;;;;8.07;1.75;;;;;;;;;;10426091;28;20353;-51
2022/08/18 08:22:15;;;;;;;5.00;1.70;;;;;;;;;;10430251;28;20108;-51
2022/08/18 08:27:50;;;;;;;7.07;2.08;;;;;;;;;;10431801;28;20504;-52
2022/08/18 08:33:16;;;;;;;7.00;1.83;;;;;;;;;;10443872;28;20044;-51
2022/08/18 08:38:46;;;;;;;4.78;1.70;;;;;;;;;;10455374;28;20029;-54
2022/08/18 08:44:12;;;;;;;4.70;1.70;;;;;;;;;;10437433;28;20080;-54
2022/08/18 08:49:41;;;;;;;6.20;1.55;;;;;;;;;;10423279;28;20040;-52
2022/08/18 08:54:59;;;;;;;3.45;1.40;;;;;;;;;;10422101;28;20033;-51
2022/08/18 09:00:07;;;;;;;2.97;1.30;;;;;;;;;;10455985;28;20040;-54
2022/08/18 09:05:33;;;;;;;4.67;1.70;;;;;;;;;;10441092;28;20098;-52
2022/08/18 09:10:49;;;;;;;6.30;1.52;;;;;;;;;;10443750;28;20033;-54
2022/08/18 09:16:23;;;;;;;4.53;1.23;;;;;;;;;;10473344;28;20031;-51
2022/08/18 09:21:46;;;;;;;4.40;1.50;;;;;;;;;;10420583;28;20194;-52
2022/08/18 09:26:53;;;;;;;4.55;1.63;;;;;;;;;;10452322;28;20036;-53
2022/08/18 09:32:18;;;;;;;5.32;1.77;;;;;;;;;;10447035;28;20068;-53
2022/08/18 09:37:25;;;;;;;2.88;1.15;;;;;;;;;;10482091;28;20029;-54
2022/08/18 09:42:45;;;;;;;2.90;1.33;;;;;;;;;;10453631;28;20025;-54
2022/08/18 09:48:11;;;;;;;3.70;1.60;;;;;;;;;;10438887;28;21470;-57
2022/08/18 09:53:32;;;;;;;5.00;1.50;;;;;;;;;;10454845;28;20099;-54
2022/08/18 09:59:01;;;;;;;6.20;1.60;;;;;;;;;;10470684;28;20037;-54
2022/08/18 10:04:15;;;;;;;3.50;1.33;;;;;;;;;;10445376;28;20041;-58
2022/08/18 10:09:58;;;;;;;1.88;1.05;;;;;;;;;;10448276;28;20112;-59
2022/08/18 10:15:18;;;;;;;3.60;1.35;;;;;;;;;;10340250;28;20091;-60
2022/08/18 10:20:43;;;;;;;3.50;1.30;;;;;;;;;;10454268;28;20029;-56
2022/08/18 10:25:47;;;;;;;2.50;1.05;;;;;;;;;;10452428;28;20461;-57
2022/08/18 10:31:05;;;;;;;3.15;1.00;;;;;;;;;;10451799;28;20021;-57
2022/08/18 10:36:05;;;;;;;3.83;1.48;;;;;;;;;;10446300;28;20034;-57
2022/08/18 10:41:19;;;;;;;3.85;1.25;;;;;;;;;;10436759;28;20025;-55
2022/08/18 10:46:42;;;;;;;4.72;1.40;;;;;;;;;;10429998;28;20116;-63
2022/08/18 10:52:01;;;;;;;11.27;3.72;;;;;;;;;;10453543;28;20060;-57
2022/08/18 10:57:35;;;;;;;3.88;1.50;;;;;;;;;;10452420;28;20585;-57
2022/08/18 11:03:22;;;;;;;3.35;1.27;;;;;;;;;;10471063;28;20028;-54
2022/08/18 11:08:23;;;;;;;;;;;;;;;;;;10418466;28;20087;-55
2022/08/18 11:13:50;;;;;;;8.30;1.92;;;;;;;;;;10458388;28;20414;-55
2022/08/18 11:19:05;;;;;;;4.93;1.67;;;;;;;;;;10434306;28;20020;-55
2022/08/18 11:24:23;;;;;;;5.25;1.42;;;;;;;;;;10445063;28;20033;-64
2022/08/18 11:29:32;;;;;;;2.75;1.50;;;;;;;;;;10443566;28;20380;-54
2022/08/18 11:34:48;;;;;;;5.75;1.70;;;;;;;;;;10420246;28;20112;-56
2022/08/18 11:39:51;;;;;;;3.85;1.52;;;;;;;;;;10451780;28;20036;-62
2022/08/18 11:45:16;;;;;;;6.93;1.70;;;;;;;;;;10452458;28;20478;-57
2022/08/18 11:50:27;;;;;;;4.28;2.00;;;;;;;;;;10447164;28;20060;-63
2022/08/18 11:55:33;;;;;;;7.22;1.80;;;;;;;;;;10445820;28;20569;-61
2022/08/18 12:00:37;;;;;;;6.72;2.00;;;;;;;;;;10443185;28;20044;-58
2022/08/18 12:05:58;;;;;;;4.05;1.60;;;;;;;;;;10443489;28;20042;-55
2022/08/18 12:11:19;;;;;;;2.80;1.33;;;;;;;;;;10440928;28;20040;-61
2022/08/18 12:16:53;;;;;;;5.10;1.80;;;;;;;;;;10441953;28;20033;-57
2022/08/18 12:21:59;;;;;;;4.15;1.42;;;;;;;;;;10387049;28;20029;-59
2022/08/18 12:27:00;;;;;;;4.97;1.70;;;;;;;;;;10445689;28;20373;-53
2022/08/18 12:32:00;;;;;;;10.73;1.98;;;;;;;;;;10420022;28;20719;-58
2022/08/18 12:37:02;;;;;;;3.10;1.40;;;;;;;;;;10401957;28;20253;-56
2022/08/18 12:42:03;;;;;;;17.08;2.13;;;;;;;;;;10445991;28;20036;-64
2022/08/18 12:47:15;;;;;;;2.92;1.75;;;;;;;;;;10440253;28;20021;-58
2022/08/18 12:52:18;;;;;;;2.97;1.50;;;;;;;;;;10452171;28;20407;-63
2022/08/18 12:57:24;;;;;;;2.72;1.30;;;;;;;;;;10435521;28;20048;-59
2022/08/18 13:02:24;;;;;;;3.13;1.48;;;;;;;;;;10439372;28;20128;-55
2022/08/18 13:07:25;;;;;;;7.95;1.92;;;;;;;;;;10444726;28;20049;-55
2022/08/18 13:12:25;;;;;;;4.38;1.85;;;;;;;;;;10447688;28;20021;-65
2022/08/18 13:17:26;;;;;;;8.77;2.28;;;;;;;;;;10468520;28;20102;-61
2022/08/18 13:22:28;;;;;;;7.05;2.88;;;;;;;;;;10435721;28;20040;-53
2022/08/18 13:27:29;;;;;;;12.63;2.72;;;;;;;;;;10458504;28;20415;-57
2022/08/18 13:32:29;;;;;;;11.63;3.05;;;;;;;;;;10439179;28;20040;-60
2022/08/18 13:37:30;;;;;;;9.60;3.28;;;;;;;;;;10454889;28;20025;-58
2022/08/18 13:42:47;;;;;;;10.02;3.08;;;;;;;;;;10453775;28;20033;-58
2022/08/18 13:47:48;;;;;;;13.30;2.60;;;;;;;;;;10445759;28;20102;-56
2022/08/18 13:52:49;;;;;;;10.77;2.53;;;;;;;;;;10458325;28;20164;-53
2022/08/18 13:57:50;;;;;;;11.68;2.55;;;;;;;;;;10463136;28;20557;-54
2022/08/18 14:02:52;;;;;;;6.53;1.75;;;;;;;;;;10461874;28;20025;-58
2022/08/18 14:07:53;;;;;;;8.27;1.70;;;;;;;;;;10454218;28;20131;-56
2022/08/18 14:12:59;;;;;;;8.05;1.65;;;;;;;;;;10447894;28;20060;-58
2022/08/18 14:17:59;;;;;;;7.70;1.80;;;;;;;;;;10458770;28;20032;-58
2022/08/18 14:28:22;;;;;;;4.63;1.48;;;;;;;;;;10458204;28;20024;-58
2022/08/18 14:33:25;;;;;;;12.95;1.90;;;;;;;;;;10457523;28;20056;-58
2022/08/18 14:38:26;;;;;;;8.65;2.10;;;;;;;;;;10458563;28;20393;-58
2022/08/18 14:43:26;;;;;;;5.72;1.42;;;;;;;;;;10451494;28;20020;-59
2022/08/18 14:48:27;;;;;;;6.05;1.75;;;;;;;;;;10456668;28;20048;-59
2022/08/18 14:53:33;;;;;;;5.63;1.75;;;;;;;;;;10449136;28;20029;-58
2022/08/18 14:58:34;;;;;;;5.75;1.60;;;;;;;;;;10459192;28;20114;-58
2022/08/18 15:03:35;;;;;;;8.23;1.60;;;;;;;;;;10455807;28;20074;-59
2022/08/18 15:08:37;;;;;;;6.75;1.88;;;;;;;;;;10454106;28;20068;-58
2022/08/18 15:13:47;;;;;;;9.48;1.65;;;;;;;;;;10442202;28;20485;-58
2022/08/18 15:18:57;;;;;;;6.43;1.65;;;;;;;;;;10459164;28;20078;-57
2022/08/18 15:29:21;;;;;;;12.27;1.80;;;;;;;;;;10445692;28;20025;-58
2022/08/18 15:34:22;;;;;;;5.88;1.58;;;;;;;;;;10452506;28;20025;-58
2022/08/18 15:39:24;;;;;;;7.88;1.80;;;;;;;;;;10452511;28;20306;-58
2022/08/18 15:44:24;;;;;;;5.57;1.80;;;;;;;;;;10437640;28;20431;-58
2022/08/18 15:49:25;;;;;;;4.32;1.27;;;;;;;;;;10446360;28;20090;-59
2022/08/18 15:54:25;;;;;;;14.07;2.45;;;;;;;;;;10448286;28;20028;-57
2022/08/18 15:59:27;;;;;;;7.53;1.95;;;;;;;;;;10453069;28;20078;-58
2022/08/18 16:04:27;;;;;;;6.05;1.80;;;;;;;;;;10445329;28;20055;-58
2022/08/18 16:09:28;;;;;;;6.75;1.58;;;;;;;;;;10446264;28;20053;-59
2022/08/18 16:14:29;;;;;;;14.55;2.22;;;;;;;;;;10443919;28;20071;-58
2022/08/18 16:19:29;;;;;;;8.52;2.10;;;;;;;;;;10443838;28;20041;-59
2022/08/18 16:24:30;;;;;;;7.28;2.45;;;;;;;;;;10434378;28;20090;-58
2022/08/18 16:29:32;;;;;;;7.25;2.35;;;;;;;;;;10431395;28;20029;-58
2022/08/18 16:34:33;;;;;;;5.20;1.85;;;;;;;;;;10421460;28;20033;-58
2022/08/18 16:39:34;;;;;;;11.52;1.85;;;;;;;;;;10438180;28;20044;-59
2022/08/18 16:44:35;;;;;;;4.90;1.70;;;;;;;;;;10442218;28;20025;-58
2022/08/18 16:49:36;;;;;;;8.05;2.08;;;;;;;;;;10426546;28;20026;-59
2022/08/18 16:54:37;;;;;;;6.32;1.85;;;;;;;;;;10449353;28;20028;-58
2022/08/18 17:05:01;;;;;;;11.32;2.13;;;;;;;;;;10454406;28;20037;-59
2022/08/18 17:10:04;;;;;;;11.20;1.95;;;;;;;;;;10445282;28;20102;-58
2022/08/18 17:15:06;;;;;;;6.97;2.25;;;;;;;;;;10445135;28;20024;-57
2022/08/18 17:20:08;;;;;;;10.80;2.22;;;;;;;;;;10452832;28;20037;-58
2022/08/18 17:25:11;;;;;;;7.55;1.70;;;;;;;;;;10460820;28;20114;-57
2022/08/18 17:30:20;;;;;;;7.35;2.10;;;;;;;;;;10424198;28;20037;-58
2022/08/18 17:35:31;;;;;;;6.90;1.70;;;;;;;;;;10464350;28;20035;-58
2022/08/18 17:40:47;;;;;;;6.90;1.92;;;;;;;;;;10436035;28;20111;-58
2022/08/18 17:46:35;;;;;;;8.45;1.80;;;;;;;;;;10432280;28;20029;-58
2022/08/18 17:51:48;;;;;;;6.95;1.80;;;;;;;;;;10426470;28;20044;-58
2022/08/18 17:57:00;;;;;;;8.45;1.90;;;;;;;;;;10450787;28;20037;-58
2022/08/18 18:02:32;;;;;;;6.45;1.80;;;;;;;;;;10451718;28;20037;-58
2022/08/18 18:07:56;;;;;;;7.07;1.63;;;;;;;;;;10444820;28;20432;-58
2022/08/18 18:13:22;;;;;;;4.05;1.52;;;;;;;;;;10461985;28;20044;-58
2022/08/18 18:18:34;;;;;;;6.30;1.83;;;;;;;;;;10439780;28;20554;-58
2022/08/18 18:23:40;;;;;;;7.38;1.80;;;;;;;;;;10448995;28;20025;-58
2022/08/18 18:28:41;;;;;;;7.15;1.73;;;;;;;;;;10450946;28;20244;-58
2022/08/18 18:33:42;;;;;;;7.10;1.83;;;;;;;;;;10457067;28;20564;-58
2022/08/18 18:38:47;;;;;;;6.53;1.80;;;;;;;;;;10468032;28;20035;-56
2022/08/18 18:43:49;;;;;;;14.13;2.17;;;;;;;;;;10466967;28;20041;-58
2022/08/18 18:49:23;;;;;;;7.10;2.03;;;;;;;;;;10446478;28;20037;-58
2022/08/18 18:54:47;;;;;;;11.10;3.00;;;;;;;;;;10446319;28;20446;-57
2022/08/18 19:00:34;;;;;;;5.80;2.10;;;;;;;;;;10427467;28;20110;-58
2022/08/18 19:06:17;;;;;;;9.57;2.45;;;;;;;;;;10427309;28;20492;-58
2022/08/18 19:11:51;;;;;;;7.68;2.58;;;;;;;;;;10352262;28;20079;-57
2022/08/18 19:17:03;;;;;;;9.93;2.28;;;;;;;;;;10446744;28;20048;-58
2022/08/18 19:22:29;;;;;;;10.43;2.78;;;;;;;;;;10445019;28;20024;-58
2022/08/18 19:28:06;;;;;;;8.45;2.70;;;;;;;;;;10407073;28;20488;-56
2022/08/18 19:33:20;;;;;;;7.37;1.73;;;;;;;;;;10416517;28;20384;-59
2022/08/18 19:39:04;;;;;;;6.72;2.13;;;;;;;;;;10406390;28;20480;-58
2022/08/18 19:44:52;;;;;;;9.27;2.28;;;;;;;;;;10387938;28;20048;-59
2022/08/18 19:50:03;;;;;;;;;;;;;;;;;;10402454;28;20041;-59
2022/08/18 19:55:26;;;;;;;7.43;2.42;;;;;;;;;;10398150;28;19925;-58
2022/08/18 20:00:45;;;;;;;8.68;2.05;;;;;;;;;;10381248;28;20040;-59
2022/08/18 20:06:07;;;;;;;6.85;1.80;;;;;;;;;;10377419;28;20042;-58
2022/08/18 20:11:38;;;;;;;11.35;1.95;;;;;;;;;;10406635;28;20025;-58
2022/08/18 20:16:42;;;;;;;8.70;1.73;;;;;;;;;;10400241;28;20025;-58
2022/08/18 20:21:46;;;;;;;10.27;1.98;;;;;;;;;;10377048;28;20435;-58
2022/08/18 20:26:49;;;;;;;8.57;1.92;;;;;;;;;;10389162;28;20052;-56
2022/08/18 20:32:05;;;;;;;6.13;1.17;;;;;;;;;;10375183;28;20659;-59
2022/08/18 20:37:07;;;;;;;6.65;1.90;;;;;;;;;;10379186;28;20024;-58
2022/08/18 20:42:19;;;;;;;6.43;1.52;;;;;;;;;;10387426;28;20033;-58
2022/08/18 20:47:41;;;;;;;9.10;1.80;;;;;;;;;;10398207;28;20116;-58
2022/08/18 20:53:12;;;;;;;5.68;1.42;;;;;;;;;;10386210;28;20499;-59
2022/08/18 20:58:19;;;;;;;6.00;1.95;;;;;;;;;;10390778;28;20037;-59
2022/08/18 21:03:21;;;;;;;8.40;1.75;;;;;;;;;;10380646;28;20620;-59
2022/08/18 21:08:27;;;;;;;4.10;1.40;;;;;;;;;;10397046;28;20033;-58
2022/08/18 21:13:41;;;;;;;5.53;1.70;;;;;;;;;;10392377;28;20048;-59
2022/08/18 21:19:13;;;;;;;9.25;1.33;;;;;;;;;;10398077;28;20127;-59
2022/08/18 21:24:34;;;;;;;9.50;1.50;;;;;;;;;;10367182;28;20094;-59
2022/08/18 21:29:36;;;;;;;8.95;1.70;;;;;;;;;;10396793;28;20076;-59
2022/08/18 21:34:43;;;;;;;9.43;1.33;;;;;;;;;;10393626;28;20152;-58
2022/08/18 21:39:53;;;;;;;4.90;1.80;;;;;;;;;;10392208;28;20363;-59
2022/08/18 21:44:57;;;;;;;5.78;1.70;;;;;;;;;;10410438;28;20033;-58
2022/08/18 21:50:09;;;;;;;9.05;2.03;;;;;;;;;;10396049;28;20475;-59
2022/08/18 21:55:31;;;;;;;5.90;1.58;;;;;;;;;;10410723;28;20365;-59
2022/08/18 22:00:36;;;;;;;10.05;2.10;;;;;;;;;;10405299;28;20037;-59
2022/08/18 22:05:58;;;;;;;5.05;1.63;;;;;;;;;;10410700;28;20048;-59
2022/08/18 22:16:35;;;;;;;13.18;2.00;;;;;;;;;;10404095;28;20040;-58
2022/08/18 22:21:48;;;;;;;7.70;1.83;;;;;;;;;;10422276;28;20044;-60
2022/08/18 22:27:17;;;;;;;10.88;1.90;;;;;;;;;;10435524;28;20139;-57
2022/08/18 22:32:22;;;;;;;15.73;2.40;;;;;;;;;;10456771;28;20032;-58
2022/08/18 22:37:28;;;;;;;12.77;2.70;;;;;;;;;;10453212;28;20672;-59
2022/08/18 22:42:32;;;;;;;25.25;2.60;;;;;;;;;;10442959;28;20029;-59
2022/08/18 22:47:32;;;;;;;21.25;2.65;;;;;;;;;;10457466;28;20118;-59
2022/08/18 22:52:39;;;;;;;14.20;2.33;;;;;;;;;;10455908;28;20033;-57
2022/08/18 22:57:40;;;;;;;17.88;2.17;;;;;;;;;;10452004;28;20083;-58
2022/08/18 23:02:41;;;;;;;9.48;1.98;;;;;;;;;;10450359;28;20257;-55
2022/08/18 23:07:42;;;;;;;20.17;2.50;;;;;;;;;;10473547;28;20063;-59
2022/08/18 23:12:45;;;;;;;14.77;2.17;;;;;;;;;;10479840;28;20028;-58
2022/08/18 23:17:46;;;;;;;15.65;2.50;;;;;;;;;;10471246;28;20170;-58
2022/08/18 23:22:47;;;;;;;16.80;2.35;;;;;;;;;;10491351;28;20020;-58
2022/08/18 23:27:47;;;;;;;19.33;2.38;;;;;;;;;;10452790;28;20039;-58
2022/08/18 23:32:48;;;;;;;15.65;2.10;;;;;;;;;;10456265;28;20047;-58
2022/08/18 23:37:48;;;;;;;8.38;1.80;;;;;;;;;;10444641;28;20041;-59
2022/08/18 23:42:50;;;;;;;10.93;1.75;;;;;;;;;;10461777;28;20032;-59
2022/08/18 23:47:51;;;;;;;18.42;2.60;;;;;;;;;;10448838;28;20095;-59
2022/08/18 23:52:57;;;;;;;9.15;2.42;;;;;;;;;;10448206;28;20024;-59
2022/08/18 23:57:57;;;;;;;8.82;1.80;;;;;;;;;;10463485;28;20029;-59
